Hillsdale, Illinois
Current Conditions -  °F | °C
As of 10:55 PM on Friday 31 Oct 2014 (Local Time) from KCWI Reporting Station
Clear Clear  
Wind Chill: 18°   Ceiling: Unl
Heat Index: 27°   Visibility: 10mi
Dew Point: 18°   Wind: 8mph
Humidity: 69%   Direction: 340°NNW
Pressure: 30.47"   Gusts: NA
Location:  41.61°N, 90.17°W
Report Text: KCWI 010355Z 34007KT 10SM CLR M03/M08 A3047 RMK AO1
Loading
Personal Weather Stations






























Interactive Weather Map
Tropical Storm Tracking
New forecast layout! Learn more

10-Day Weather Forecast

Advertisements
Track Severe Weather on mobile